createdAt,value
2022-10-20T00:04:11.781Z,15.40
2022-10-20T00:09:14.000Z,15.40
2022-10-20T00:14:16.098Z,15.40
2022-10-20T00:19:18.243Z,15.40
2022-10-20T00:24:21.663Z,15.40
2022-10-20T00:29:23.750Z,15.40
2022-10-20T00:34:25.914Z,15.50
2022-10-20T00:39:28.161Z,15.50
2022-10-20T00:44:48.196Z,15.40
2022-10-20T00:49:51.479Z,15.40
2022-10-20T00:54:53.610Z,15.30
2022-10-20T00:59:55.803Z,15.30
2022-10-20T01:04:58.057Z,15.20
2022-10-20T01:10:00.968Z,15.20
2022-10-20T01:15:29.714Z,15.30
2022-10-20T01:21:04.450Z,15.20
2022-10-20T01:26:45.045Z,15.20
2022-10-20T01:31:58.080Z,15.10
2022-10-20T01:37:07.937Z,15.10
2022-10-20T01:42:16.456Z,15.20
2022-10-20T01:47:20.748Z,15.20
2022-10-20T01:52:24.111Z,15.20
2022-10-20T01:57:40.905Z,15.10
2022-10-20T02:02:42.945Z,15.10
2022-10-20T02:07:45.168Z,15.10
2022-10-20T02:12:54.066Z,15.10
2022-10-20T02:18:01.020Z,15.10
2022-10-20T02:23:05.919Z,15.10
2022-10-20T02:28:12.183Z,15.20
2022-10-20T02:33:17.135Z,15.10
2022-10-20T02:38:19.278Z,15.10
2022-10-20T02:43:21.453Z,15.10
2022-10-20T02:48:23.598Z,15.00
2022-10-20T02:53:26.014Z,14.90
2022-10-20T02:58:28.140Z,14.80
2022-10-20T03:03:30.591Z,14.80
2022-10-20T03:08:32.846Z,14.70
2022-10-20T03:13:35.285Z,14.60
2022-10-20T03:18:37.407Z,14.50
2022-10-20T03:23:39.623Z,14.50
2022-10-20T03:28:41.759Z,14.50
2022-10-20T03:33:43.902Z,14.50
2022-10-20T03:38:46.062Z,14.50
2022-10-20T03:43:48.203Z,14.50
2022-10-20T03:48:50.302Z,14.40
2022-10-20T03:53:52.518Z,14.40
2022-10-20T03:58:54.723Z,14.30
2022-10-20T04:03:56.975Z,14.30
2022-10-20T04:08:59.172Z,14.20
2022-10-20T04:14:01.483Z,14.20
2022-10-20T04:19:03.709Z,14.20
2022-10-20T04:24:07.381Z,14.10
2022-10-20T04:29:09.517Z,14.10
2022-10-20T04:34:11.652Z,14.10
2022-10-20T04:39:13.920Z,14.00
2022-10-20T04:44:16.173Z,13.90
2022-10-20T04:49:18.323Z,13.80
2022-10-20T04:54:20.567Z,13.80
2022-10-20T04:59:22.738Z,13.70
2022-10-20T05:04:24.891Z,13.60
2022-10-20T05:09:26.977Z,13.60
2022-10-20T05:14:29.157Z,13.50
2022-10-20T05:19:31.227Z,13.50
2022-10-20T05:24:33.460Z,13.40
2022-10-20T05:29:35.544Z,13.40
2022-10-20T05:34:37.743Z,13.30
2022-10-20T05:39:39.979Z,13.20
2022-10-20T05:44:42.086Z,13.10
2022-10-20T05:49:44.155Z,13.00
2022-10-20T05:54:46.241Z,13.00
2022-10-20T05:59:48.328Z,12.90
2022-10-20T06:04:50.379Z,12.80
2022-10-20T06:09:52.503Z,12.70
2022-10-20T06:14:54.603Z,12.70
2022-10-20T06:19:56.739Z,12.70
2022-10-20T06:24:58.883Z,12.60
2022-10-20T06:30:00.989Z,12.60
2022-10-20T06:35:03.243Z,12.60
2022-10-20T06:40:05.868Z,12.50
2022-10-20T06:45:08.599Z,12.40
2022-10-20T06:50:10.781Z,12.30
2022-10-20T06:55:12.920Z,12.30
2022-10-20T07:00:15.281Z,12.40
2022-10-20T07:05:17.478Z,12.40
2022-10-20T07:10:19.634Z,12.50
2022-10-20T07:15:21.778Z,12.40
2022-10-20T07:20:24.044Z,12.40
2022-10-20T07:25:26.271Z,12.50
2022-10-20T07:30:28.402Z,12.50
2022-10-20T07:35:30.847Z,12.40
2022-10-20T07:40:32.939Z,12.40
2022-10-20T07:45:35.218Z,12.50
2022-10-20T07:50:37.990Z,12.50
2022-10-20T07:55:40.095Z,12.60
2022-10-20T08:00:42.181Z,12.70
2022-10-20T08:05:44.277Z,12.80
2022-10-20T08:10:47.010Z,12.90
2022-10-20T08:15:49.206Z,12.90
2022-10-20T08:20:53.448Z,13.00
2022-10-20T08:25:56.511Z,13.10
2022-10-20T08:30:58.654Z,13.20
2022-10-20T08:36:10.215Z,13.30
2022-10-20T08:41:25.013Z,13.40
2022-10-20T08:46:34.892Z,13.40
2022-10-20T08:51:38.587Z,13.50
2022-10-20T08:56:40.809Z,13.60
2022-10-20T09:01:43.041Z,13.70
2022-10-20T09:06:48.234Z,13.80
2022-10-20T09:11:51.299Z,13.90
2022-10-20T09:17:00.394Z,14.00
2022-10-20T09:22:07.255Z,14.10
2022-10-20T09:27:24.941Z,14.20
2022-10-20T09:32:51.871Z,14.20
2022-10-20T09:38:00.152Z,14.30
2022-10-20T09:43:09.589Z,14.40
2022-10-20T09:48:24.002Z,14.50
2022-10-20T09:53:31.951Z,14.60
2022-10-20T09:58:38.022Z,14.60
2022-10-20T10:03:44.953Z,14.60
2022-10-20T10:08:47.875Z,14.80
2022-10-20T10:13:52.308Z,14.90
2022-10-20T10:19:03.433Z,15.00
2022-10-20T10:24:06.012Z,15.10
2022-10-20T10:29:29.973Z,15.20
2022-10-20T10:35:00.634Z,15.40
2022-10-20T10:40:14.621Z,15.60
2022-10-20T10:46:07.748Z,15.80
2022-10-20T10:51:37.567Z,16.10
2022-10-20T10:56:56.806Z,16.50
2022-10-20T11:02:01.859Z,16.80
2022-10-20T11:07:16.089Z,17.10
2022-10-20T11:12:49.051Z,17.40
2022-10-20T11:18:14.808Z,17.80
2022-10-20T11:23:53.179Z,18.00
2022-10-20T11:28:57.896Z,18.10
2022-10-20T11:34:22.842Z,18.30
2022-10-20T11:39:39.503Z,18.40
2022-10-20T11:44:44.523Z,18.60
2022-10-20T11:49:47.359Z,18.80
2022-10-20T11:55:01.603Z,19.10
2022-10-20T12:00:21.669Z,19.40
2022-10-20T12:05:42.327Z,19.40
2022-10-20T12:11:12.537Z,19.70
2022-10-20T12:16:53.432Z,19.80
2022-10-20T12:22:13.484Z,20.00
2022-10-20T12:27:18.494Z,20.10
2022-10-20T12:32:53.118Z,20.20
2022-10-20T12:38:04.307Z,20.30
2022-10-20T12:43:22.899Z,20.40
2022-10-20T12:48:25.646Z,20.70
2022-10-20T12:53:30.849Z,20.90
2022-10-20T12:58:59.915Z,21.00
2022-10-20T13:04:01.988Z,21.20
2022-10-20T13:09:04.300Z,21.20
2022-10-20T13:14:12.569Z,21.30
2022-10-20T13:19:32.699Z,21.40
2022-10-20T13:24:38.910Z,21.60
2022-10-20T13:29:48.253Z,21.80
2022-10-20T13:35:10.987Z,21.70
2022-10-20T13:40:58.579Z,21.70
2022-10-20T13:46:32.205Z,21.90
2022-10-20T13:51:49.721Z,22.00
2022-10-20T13:56:52.360Z,22.20
2022-10-20T14:01:57.996Z,22.40
2022-10-20T14:07:08.693Z,22.20
2022-10-20T14:12:26.336Z,22.30
2022-10-20T14:17:28.613Z,22.60
2022-10-20T14:22:31.984Z,22.60
2022-10-20T14:27:37.011Z,22.40
2022-10-20T14:32:40.864Z,22.40
2022-10-20T14:37:51.722Z,22.30
2022-10-20T14:43:02.559Z,22.00
2022-10-20T14:48:09.580Z,20.90
2022-10-20T14:53:17.757Z,20.20
2022-10-20T14:58:38.339Z,20.00
2022-10-20T15:03:40.584Z,20.10
2022-10-20T15:08:52.694Z,20.50
2022-10-20T15:13:59.093Z,20.20
2022-10-20T15:19:30.030Z,19.80
2022-10-20T15:24:32.138Z,19.60
2022-10-20T15:29:34.415Z,19.50
2022-10-20T15:34:36.706Z,19.50
2022-10-20T15:39:38.845Z,19.70
2022-10-20T15:44:40.911Z,19.50
2022-10-20T15:49:42.958Z,19.40
2022-10-20T15:54:45.014Z,19.30
2022-10-20T15:59:47.071Z,19.30
2022-10-20T16:04:49.162Z,19.30
2022-10-20T16:09:51.272Z,19.10
2022-10-20T16:14:53.864Z,19.00
2022-10-20T16:19:55.979Z,18.70
2022-10-20T16:25:01.328Z,18.50
2022-10-20T16:30:04.786Z,18.40
2022-10-20T16:35:07.333Z,18.30
2022-10-20T16:40:10.160Z,18.20
2022-10-20T16:45:12.419Z,18.10
2022-10-20T16:50:14.583Z,18.00
2022-10-20T16:55:16.794Z,17.90
2022-10-20T17:00:18.976Z,17.80
2022-10-20T17:05:26.348Z,17.80
2022-10-20T17:10:28.875Z,17.70
2022-10-20T17:15:30.969Z,17.70
2022-10-20T17:20:38.079Z,17.60
2022-10-20T17:25:41.197Z,17.60
2022-10-20T17:30:48.830Z,17.50
2022-10-20T17:35:50.911Z,17.40
2022-10-20T17:40:53.754Z,17.30
2022-10-20T17:46:07.854Z,17.20
2022-10-20T17:51:22.582Z,17.10
2022-10-20T17:56:34.402Z,17.10
2022-10-20T18:01:39.710Z,17.10
2022-10-20T18:06:43.158Z,17.10
2022-10-20T18:11:51.687Z,17.10
2022-10-20T18:16:53.908Z,17.00
2022-10-20T18:21:56.170Z,17.00
2022-10-20T18:26:58.508Z,17.00
2022-10-20T18:32:00.651Z,16.90
2022-10-20T18:37:03.675Z,16.80
2022-10-20T18:42:05.835Z,16.80
2022-10-20T18:47:08.279Z,16.80
2022-10-20T18:52:10.433Z,16.70
2022-10-20T18:57:12.506Z,16.60
2022-10-20T19:02:14.832Z,16.50
2022-10-20T19:07:18.044Z,16.50
2022-10-20T19:12:20.423Z,16.50
2022-10-20T19:17:22.560Z,16.40
2022-10-20T19:22:28.429Z,16.30
2022-10-20T19:27:32.598Z,16.30
2022-10-20T19:32:36.462Z,16.20
2022-10-20T19:37:41.268Z,16.30
2022-10-20T19:42:43.365Z,16.20
2022-10-20T19:47:46.934Z,16.20
2022-10-20T19:52:49.025Z,16.20
2022-10-20T19:57:51.084Z,16.20
2022-10-20T20:02:53.190Z,16.20
2022-10-20T20:07:55.225Z,16.10
2022-10-20T20:12:57.316Z,16.00
2022-10-20T20:17:59.355Z,15.90
2022-10-20T20:23:01.414Z,15.90
2022-10-20T20:28:03.801Z,15.80
2022-10-20T20:33:06.082Z,15.90
2022-10-20T20:38:08.442Z,15.80
2022-10-20T20:43:10.550Z,15.80
2022-10-20T20:48:12.663Z,15.80
2022-10-20T20:53:14.805Z,15.80
2022-10-20T20:58:17.056Z,15.70
2022-10-20T21:03:19.736Z,15.70
2022-10-20T21:08:22.152Z,15.70
2022-10-20T21:13:24.262Z,15.80
2022-10-20T21:18:26.325Z,15.90
2022-10-20T21:23:28.426Z,16.00
2022-10-20T21:28:30.549Z,16.10
2022-10-20T21:33:35.159Z,16.10
2022-10-20T21:38:38.472Z,16.10
2022-10-20T21:43:43.743Z,16.10
2022-10-20T21:48:47.866Z,16.10
2022-10-20T21:53:50.282Z,16.10
2022-10-20T21:58:53.525Z,16.10
2022-10-20T22:03:56.020Z,16.00
2022-10-20T22:08:58.922Z,16.00
2022-10-20T22:14:01.773Z,15.90
2022-10-20T22:19:07.678Z,15.90
2022-10-20T22:24:10.365Z,15.90
2022-10-20T22:29:13.207Z,15.90
2022-10-20T22:34:15.468Z,15.90
2022-10-20T22:39:17.810Z,15.80
2022-10-20T22:44:20.046Z,15.80
2022-10-20T22:49:23.918Z,15.80
2022-10-20T22:54:26.818Z,15.80
2022-10-20T22:59:28.999Z,15.80
2022-10-20T23:04:31.139Z,15.80
2022-10-20T23:09:33.392Z,15.80
2022-10-20T23:14:35.554Z,15.80
2022-10-20T23:19:37.683Z,15.80
2022-10-20T23:24:39.782Z,15.80
2022-10-20T23:29:41.953Z,15.70
2022-10-20T23:34:44.144Z,15.70
2022-10-20T23:39:46.775Z,15.70
2022-10-20T23:44:48.980Z,15.70
2022-10-20T23:49:51.150Z,15.70
2022-10-20T23:54:53.303Z,15.90
2022-10-20T23:59:55.399Z,16.00
